Open Full Screen Window  High Contrast Mode
Wind Gusting 00 knots
03
April 18, 2015 7:35 AM EDT
Weather Information
Wind Direction
  320 °
Wind Speed
  03 kt (3 mph)
Wind Gust
  00 kt (0 mph)
Altimeter
30.06 in
Visibility
10 SM
Temperature
06° C
43° F
Dewpoint
05° C
41° F
Humidity
93%
1hr Rain Fall
00.00 in.
24hr Rain Fall
00.00 in.
Sky Condition
Clear
VFR

METAR KIKW 181135Z AUTO 32003KT 10SM CLR 06/05 A3006 RMK AO2 T00610046

*Background is not an actual portrayal of the airport.